sensor_id;sensor_type;location;lat;lon;timestamp;P1;durP1;ratioP1;P2;durP2;ratioP2
23470;SDS011;11908;50.806;4.424;2023-11-21T00:00:49;52.50;;;24.02;;
23470;SDS011;11908;50.806;4.424;2023-11-21T00:03:14;45.55;;;23.40;;
23470;SDS011;11908;50.806;4.424;2023-11-21T00:05:40;51.78;;;24.17;;
23470;SDS011;11908;50.806;4.424;2023-11-21T00:08:07;50.75;;;23.50;;
23470;SDS011;11908;50.806;4.424;2023-11-21T00:10:33;49.85;;;24.52;;
23470;SDS011;11908;50.806;4.424;2023-11-21T00:12:59;47.17;;;23.77;;
23470;SDS011;11908;50.806;4.424;2023-11-21T00:15:27;53.90;;;24.23;;
23470;SDS011;11908;50.806;4.424;2023-11-21T00:17:53;49.78;;;24.45;;
23470;SDS011;11908;50.806;4.424;2023-11-21T00:20:18;51.67;;;25.20;;
23470;SDS011;11908;50.806;4.424;2023-11-21T00:22:44;50.45;;;25.50;;
23470;SDS011;11908;50.806;4.424;2023-11-21T00:25:10;57.88;;;24.92;;
23470;SDS011;11908;50.806;4.424;2023-11-21T00:27:37;52.85;;;23.08;;
23470;SDS011;11908;50.806;4.424;2023-11-21T00:30:03;50.70;;;25.20;;
23470;SDS011;11908;50.806;4.424;2023-11-21T00:32:30;50.10;;;23.00;;
23470;SDS011;11908;50.806;4.424;2023-11-21T00:34:56;51.30;;;25.25;;
23470;SDS011;11908;50.806;4.424;2023-11-21T00:37:22;51.67;;;24.50;;
23470;SDS011;11908;50.806;4.424;2023-11-21T00:39:48;45.88;;;23.83;;
23470;SDS011;11908;50.806;4.424;2023-11-21T00:42:14;44.90;;;23.70;;
23470;SDS011;11908;50.806;4.424;2023-11-21T00:44:40;51.47;;;24.08;;
23470;SDS011;11908;50.806;4.424;2023-11-21T00:47:05;44.13;;;23.67;;
23470;SDS011;11908;50.806;4.424;2023-11-21T00:49:33;50.80;;;24.42;;
23470;SDS011;11908;50.806;4.424;2023-11-21T00:51:58;50.78;;;24.33;;
23470;SDS011;11908;50.806;4.424;2023-11-21T00:54:24;48.65;;;24.60;;
23470;SDS011;11908;50.806;4.424;2023-11-21T00:56:50;44.55;;;24.25;;
23470;SDS011;11908;50.806;4.424;2023-11-21T00:59:15;46.03;;;23.30;;
23470;SDS011;11908;50.806;4.424;2023-11-21T01:01:41;48.63;;;24.25;;
23470;SDS011;11908;50.806;4.424;2023-11-21T01:04:06;49.70;;;24.50;;
23470;SDS011;11908;50.806;4.424;2023-11-21T01:06:32;46.78;;;24.95;;
23470;SDS011;11908;50.806;4.424;2023-11-21T01:08:58;55.78;;;23.70;;
23470;SDS011;11908;50.806;4.424;2023-11-21T01:11:24;46.05;;;22.98;;
23470;SDS011;11908;50.806;4.424;2023-11-21T01:13:49;47.60;;;23.92;;
23470;SDS011;11908;50.806;4.424;2023-11-21T01:16:15;49.40;;;24.67;;
23470;SDS011;11908;50.806;4.424;2023-11-21T01:18:41;50.00;;;23.58;;
23470;SDS011;11908;50.806;4.424;2023-11-21T01:21:06;46.65;;;22.95;;
23470;SDS011;11908;50.806;4.424;2023-11-21T01:23:34;48.45;;;22.95;;
23470;SDS011;11908;50.806;4.424;2023-11-21T01:26:00;43.85;;;21.92;;
23470;SDS011;11908;50.806;4.424;2023-11-21T01:28:25;52.90;;;24.05;;
23470;SDS011;11908;50.806;4.424;2023-11-21T01:30:51;45.72;;;23.20;;
23470;SDS011;11908;50.806;4.424;2023-11-21T01:33:21;44.47;;;22.95;;
23470;SDS011;11908;50.806;4.424;2023-11-21T01:35:48;41.65;;;21.50;;
23470;SDS011;11908;50.806;4.424;2023-11-21T01:38:14;46.03;;;22.65;;
23470;SDS011;11908;50.806;4.424;2023-11-21T01:40:40;41.85;;;21.88;;
23470;SDS011;11908;50.806;4.424;2023-11-21T01:43:06;46.42;;;22.10;;
23470;SDS011;11908;50.806;4.424;2023-11-21T01:45:33;39.65;;;20.38;;
23470;SDS011;11908;50.806;4.424;2023-11-21T01:47:59;48.97;;;22.52;;
23470;SDS011;11908;50.806;4.424;2023-11-21T01:50:26;44.03;;;21.35;;
23470;SDS011;11908;50.806;4.424;2023-11-21T01:52:52;43.85;;;21.38;;
23470;SDS011;11908;50.806;4.424;2023-11-21T01:55:18;44.60;;;21.08;;
23470;SDS011;11908;50.806;4.424;2023-11-21T01:57:45;50.22;;;22.83;;
23470;SDS011;11908;50.806;4.424;2023-11-21T02:00:11;41.03;;;21.45;;
23470;SDS011;11908;50.806;4.424;2023-11-21T02:02:43;49.85;;;22.23;;
23470;SDS011;11908;50.806;4.424;2023-11-21T02:05:13;43.13;;;21.43;;
23470;SDS011;11908;50.806;4.424;2023-11-21T02:07:43;41.20;;;21.83;;
23470;SDS011;11908;50.806;4.424;2023-11-21T02:10:09;44.28;;;22.65;;
23470;SDS011;11908;50.806;4.424;2023-11-21T02:12:39;41.63;;;21.05;;
23470;SDS011;11908;50.806;4.424;2023-11-21T02:15:07;43.40;;;21.85;;
23470;SDS011;11908;50.806;4.424;2023-11-21T02:17:40;40.03;;;19.90;;
23470;SDS011;11908;50.806;4.424;2023-11-21T02:20:10;42.65;;;20.33;;
23470;SDS011;11908;50.806;4.424;2023-11-21T02:22:40;34.47;;;19.67;;
23470;SDS011;11908;50.806;4.424;2023-11-21T02:25:07;36.90;;;20.33;;
23470;SDS011;11908;50.806;4.424;2023-11-21T02:27:33;41.60;;;20.25;;
23470;SDS011;11908;50.806;4.424;2023-11-21T02:29:59;44.35;;;21.52;;
23470;SDS011;11908;50.806;4.424;2023-11-21T02:32:26;48.13;;;21.00;;
23470;SDS011;11908;50.806;4.424;2023-11-21T02:34:51;40.40;;;21.65;;
23470;SDS011;11908;50.806;4.424;2023-11-21T02:37:18;38.58;;;19.65;;
23470;SDS011;11908;50.806;4.424;2023-11-21T02:39:44;40.35;;;20.33;;
23470;SDS011;11908;50.806;4.424;2023-11-21T02:42:10;34.58;;;20.27;;
23470;SDS011;11908;50.806;4.424;2023-11-21T02:44:36;35.88;;;19.48;;
23470;SDS011;11908;50.806;4.424;2023-11-21T02:47:01;36.53;;;19.58;;
23470;SDS011;11908;50.806;4.424;2023-11-21T02:49:27;38.65;;;21.38;;
23470;SDS011;11908;50.806;4.424;2023-11-21T02:51:54;36.65;;;20.00;;
23470;SDS011;11908;50.806;4.424;2023-11-21T02:54:20;37.58;;;19.58;;
23470;SDS011;11908;50.806;4.424;2023-11-21T02:56:47;38.55;;;20.05;;
23470;SDS011;11908;50.806;4.424;2023-11-21T02:59:14;40.25;;;20.38;;
23470;SDS011;11908;50.806;4.424;2023-11-21T03:01:40;41.17;;;20.30;;
23470;SDS011;11908;50.806;4.424;2023-11-21T03:04:06;36.17;;;20.90;;
23470;SDS011;11908;50.806;4.424;2023-11-21T03:06:32;39.85;;;20.17;;
23470;SDS011;11908;50.806;4.424;2023-11-21T03:08:58;37.65;;;19.98;;
23470;SDS011;11908;50.806;4.424;2023-11-21T03:11:24;34.60;;;19.48;;
23470;SDS011;11908;50.806;4.424;2023-11-21T03:13:50;31.60;;;19.60;;
23470;SDS011;11908;50.806;4.424;2023-11-21T03:16:16;31.77;;;18.75;;
23470;SDS011;11908;50.806;4.424;2023-11-21T03:18:42;34.35;;;20.30;;
23470;SDS011;11908;50.806;4.424;2023-11-21T03:21:07;42.35;;;20.17;;
23470;SDS011;11908;50.806;4.424;2023-11-21T03:23:34;37.28;;;20.10;;
23470;SDS011;11908;50.806;4.424;2023-11-21T03:26:00;37.92;;;19.15;;
23470;SDS011;11908;50.806;4.424;2023-11-21T03:28:26;34.60;;;19.85;;
23470;SDS011;11908;50.806;4.424;2023-11-21T03:30:52;36.15;;;18.33;;
23470;SDS011;11908;50.806;4.424;2023-11-21T03:33:18;36.38;;;19.38;;
23470;SDS011;11908;50.806;4.424;2023-11-21T03:35:44;35.15;;;18.73;;
23470;SDS011;11908;50.806;4.424;2023-11-21T03:38:10;43.60;;;20.13;;
23470;SDS011;11908;50.806;4.424;2023-11-21T03:40:36;33.75;;;18.75;;
23470;SDS011;11908;50.806;4.424;2023-11-21T03:43:01;37.00;;;18.95;;
23470;SDS011;11908;50.806;4.424;2023-11-21T03:45:28;28.73;;;17.98;;
23470;SDS011;11908;50.806;4.424;2023-11-21T03:47:53;36.83;;;18.63;;
23470;SDS011;11908;50.806;4.424;2023-11-21T03:50:19;32.67;;;17.52;;
23470;SDS011;11908;50.806;4.424;2023-11-21T03:52:45;38.17;;;19.05;;
23470;SDS011;11908;50.806;4.424;2023-11-21T03:55:10;33.60;;;17.83;;
23470;SDS011;11908;50.806;4.424;2023-11-21T03:57:36;36.50;;;18.30;;
23470;SDS011;11908;50.806;4.424;2023-11-21T04:00:02;38.78;;;18.77;;
23470;SDS011;11908;50.806;4.424;2023-11-21T04:02:30;32.83;;;18.83;;
23470;SDS011;11908;50.806;4.424;2023-11-21T04:04:56;36.70;;;19.95;;
23470;SDS011;11908;50.806;4.424;2023-11-21T04:07:22;38.35;;;21.50;;
23470;SDS011;11908;50.806;4.424;2023-11-21T04:09:48;36.50;;;20.20;;
23470;SDS011;11908;50.806;4.424;2023-11-21T04:12:14;44.53;;;20.92;;
23470;SDS011;11908;50.806;4.424;2023-11-21T04:14:39;40.33;;;21.02;;
23470;SDS011;11908;50.806;4.424;2023-11-21T04:17:05;35.08;;;20.58;;
23470;SDS011;11908;50.806;4.424;2023-11-21T04:19:31;35.63;;;19.90;;
23470;SDS011;11908;50.806;4.424;2023-11-21T04:21:57;45.13;;;20.90;;
23470;SDS011;11908;50.806;4.424;2023-11-21T04:24:23;36.83;;;21.45;;
23470;SDS011;11908;50.806;4.424;2023-11-21T04:26:48;40.47;;;21.42;;
23470;SDS011;11908;50.806;4.424;2023-11-21T04:29:14;38.15;;;21.83;;
23470;SDS011;11908;50.806;4.424;2023-11-21T04:31:40;45.45;;;22.20;;
23470;SDS011;11908;50.806;4.424;2023-11-21T04:34:06;38.50;;;20.67;;
23470;SDS011;11908;50.806;4.424;2023-11-21T04:36:33;33.70;;;18.92;;
23470;SDS011;11908;50.806;4.424;2023-11-21T04:38:59;34.83;;;18.30;;
23470;SDS011;11908;50.806;4.424;2023-11-21T04:41:25;44.05;;;18.33;;
23470;SDS011;11908;50.806;4.424;2023-11-21T04:43:51;38.88;;;18.40;;
23470;SDS011;11908;50.806;4.424;2023-11-21T04:46:17;33.28;;;18.20;;
23470;SDS011;11908;50.806;4.424;2023-11-21T04:48:42;33.05;;;17.92;;
23470;SDS011;11908;50.806;4.424;2023-11-21T04:51:09;29.83;;;16.85;;
23470;SDS011;11908;50.806;4.424;2023-11-21T04:53:36;28.70;;;16.45;;
23470;SDS011;11908;50.806;4.424;2023-11-21T04:56:02;34.60;;;17.95;;
23470;SDS011;11908;50.806;4.424;2023-11-21T04:58:28;33.97;;;17.98;;
23470;SDS011;11908;50.806;4.424;2023-11-21T05:00:54;39.38;;;19.02;;
23470;SDS011;11908;50.806;4.424;2023-11-21T05:03:19;34.28;;;18.90;;
23470;SDS011;11908;50.806;4.424;2023-11-21T05:05:45;39.38;;;19.95;;
23470;SDS011;11908;50.806;4.424;2023-11-21T05:08:11;37.28;;;18.63;;
23470;SDS011;11908;50.806;4.424;2023-11-21T05:10:37;36.72;;;18.10;;
23470;SDS011;11908;50.806;4.424;2023-11-21T05:13:04;40.97;;;19.17;;
23470;SDS011;11908;50.806;4.424;2023-11-21T05:15:34;44.50;;;20.20;;
23470;SDS011;11908;50.806;4.424;2023-11-21T05:18:00;37.10;;;19.05;;
23470;SDS011;11908;50.806;4.424;2023-11-21T05:20:26;33.88;;;18.13;;
23470;SDS011;11908;50.806;4.424;2023-11-21T05:22:51;38.40;;;20.05;;
23470;SDS011;11908;50.806;4.424;2023-11-21T05:25:17;35.30;;;19.73;;
23470;SDS011;11908;50.806;4.424;2023-11-21T05:27:44;38.97;;;19.02;;
23470;SDS011;11908;50.806;4.424;2023-11-21T05:30:13;33.60;;;18.58;;
23470;SDS011;11908;50.806;4.424;2023-11-21T05:32:39;33.78;;;18.38;;
23470;SDS011;11908;50.806;4.424;2023-11-21T05:35:08;37.42;;;18.52;;
23470;SDS011;11908;50.806;4.424;2023-11-21T05:37:37;39.00;;;18.85;;
23470;SDS011;11908;50.806;4.424;2023-11-21T05:40:05;34.85;;;17.95;;
23470;SDS011;11908;50.806;4.424;2023-11-21T05:42:35;28.35;;;16.55;;
23470;SDS011;11908;50.806;4.424;2023-11-21T05:45:01;32.65;;;17.95;;
23470;SDS011;11908;50.806;4.424;2023-11-21T05:47:39;36.83;;;18.17;;
23470;SDS011;11908;50.806;4.424;2023-11-21T05:50:06;35.60;;;18.55;;
23470;SDS011;11908;50.806;4.424;2023-11-21T05:52:37;37.30;;;19.65;;
23470;SDS011;11908;50.806;4.424;2023-11-21T05:55:05;40.50;;;21.05;;
23470;SDS011;11908;50.806;4.424;2023-11-21T05:57:32;38.17;;;19.75;;
23470;SDS011;11908;50.806;4.424;2023-11-21T06:00:01;40.72;;;20.27;;
23470;SDS011;11908;50.806;4.424;2023-11-21T06:02:28;42.45;;;20.40;;
23470;SDS011;11908;50.806;4.424;2023-11-21T06:04:54;38.83;;;21.25;;
23470;SDS011;11908;50.806;4.424;2023-11-21T06:07:20;36.22;;;19.17;;
23470;SDS011;11908;50.806;4.424;2023-11-21T06:09:45;32.53;;;19.05;;
23470;SDS011;11908;50.806;4.424;2023-11-21T06:12:11;32.67;;;18.95;;
23470;SDS011;11908;50.806;4.424;2023-11-21T06:14:36;36.25;;;20.02;;
23470;SDS011;11908;50.806;4.424;2023-11-21T06:17:02;34.75;;;21.02;;
23470;SDS011;11908;50.806;4.424;2023-11-21T06:19:28;38.53;;;20.73;;
23470;SDS011;11908;50.806;4.424;2023-11-21T06:21:54;39.40;;;19.55;;
23470;SDS011;11908;50.806;4.424;2023-11-21T06:24:20;32.88;;;19.13;;
23470;SDS011;11908;50.806;4.424;2023-11-21T06:26:46;36.05;;;20.30;;
23470;SDS011;11908;50.806;4.424;2023-11-21T06:29:13;35.00;;;19.08;;
23470;SDS011;11908;50.806;4.424;2023-11-21T06:31:39;35.53;;;19.67;;
23470;SDS011;11908;50.806;4.424;2023-11-21T06:34:06;33.22;;;21.90;;
23470;SDS011;11908;50.806;4.424;2023-11-21T06:36:31;49.60;;;23.33;;
23470;SDS011;11908;50.806;4.424;2023-11-21T06:38:57;43.92;;;21.42;;
23470;SDS011;11908;50.806;4.424;2023-11-21T06:41:23;44.38;;;21.45;;
23470;SDS011;11908;50.806;4.424;2023-11-21T06:43:48;47.17;;;21.15;;
23470;SDS011;11908;50.806;4.424;2023-11-21T06:46:14;49.05;;;23.50;;
23470;SDS011;11908;50.806;4.424;2023-11-21T06:48:42;35.35;;;21.15;;
23470;SDS011;11908;50.806;4.424;2023-11-21T06:51:08;43.70;;;22.17;;
23470;SDS011;11908;50.806;4.424;2023-11-21T06:53:33;41.33;;;21.50;;
23470;SDS011;11908;50.806;4.424;2023-11-21T06:56:00;47.22;;;24.75;;
23470;SDS011;11908;50.806;4.424;2023-11-21T06:58:26;47.22;;;26.25;;
23470;SDS011;11908;50.806;4.424;2023-11-21T07:00:51;44.75;;;23.80;;
23470;SDS011;11908;50.806;4.424;2023-11-21T07:03:17;48.78;;;23.63;;
23470;SDS011;11908;50.806;4.424;2023-11-21T07:05:44;49.70;;;24.00;;
23470;SDS011;11908;50.806;4.424;2023-11-21T07:08:10;45.60;;;22.75;;
23470;SDS011;11908;50.806;4.424;2023-11-21T07:10:36;39.03;;;21.88;;
23470;SDS011;11908;50.806;4.424;2023-11-21T07:13:01;43.05;;;23.05;;
23470;SDS011;11908;50.806;4.424;2023-11-21T07:15:27;48.90;;;22.75;;
23470;SDS011;11908;50.806;4.424;2023-11-21T07:17:53;45.45;;;23.02;;
23470;SDS011;11908;50.806;4.424;2023-11-21T07:20:19;38.17;;;22.45;;
23470;SDS011;11908;50.806;4.424;2023-11-21T07:22:45;40.35;;;22.00;;
23470;SDS011;11908;50.806;4.424;2023-11-21T07:25:10;45.80;;;21.73;;
23470;SDS011;11908;50.806;4.424;2023-11-21T07:27:37;55.50;;;27.83;;
23470;SDS011;11908;50.806;4.424;2023-11-21T07:30:02;55.40;;;29.15;;
23470;SDS011;11908;50.806;4.424;2023-11-21T07:32:30;49.13;;;26.95;;
23470;SDS011;11908;50.806;4.424;2023-11-21T07:34:56;46.67;;;25.63;;
23470;SDS011;11908;50.806;4.424;2023-11-21T07:37:23;53.72;;;25.85;;
23470;SDS011;11908;50.806;4.424;2023-11-21T07:39:48;54.25;;;26.63;;
23470;SDS011;11908;50.806;4.424;2023-11-21T07:42:14;43.22;;;23.70;;
23470;SDS011;11908;50.806;4.424;2023-11-21T07:44:40;38.28;;;21.92;;
23470;SDS011;11908;50.806;4.424;2023-11-21T07:47:06;44.83;;;23.58;;
23470;SDS011;11908;50.806;4.424;2023-11-21T07:49:31;48.20;;;27.10;;
23470;SDS011;11908;50.806;4.424;2023-11-21T07:51:57;46.55;;;26.27;;
23470;SDS011;11908;50.806;4.424;2023-11-21T07:54:22;48.78;;;27.20;;
23470;SDS011;11908;50.806;4.424;2023-11-21T07:56:48;50.90;;;28.33;;
23470;SDS011;11908;50.806;4.424;2023-11-21T07:59:14;58.58;;;28.02;;
23470;SDS011;11908;50.806;4.424;2023-11-21T08:01:39;44.95;;;25.80;;
23470;SDS011;11908;50.806;4.424;2023-11-21T08:04:05;41.35;;;24.70;;
23470;SDS011;11908;50.806;4.424;2023-11-21T08:06:31;51.17;;;25.45;;
23470;SDS011;11908;50.806;4.424;2023-11-21T08:08:58;45.63;;;24.40;;
23470;SDS011;11908;50.806;4.424;2023-11-21T08:11:24;44.28;;;24.48;;
23470;SDS011;11908;50.806;4.424;2023-11-21T08:13:51;53.60;;;25.60;;
23470;SDS011;11908;50.806;4.424;2023-11-21T08:16:18;50.50;;;26.60;;
23470;SDS011;11908;50.806;4.424;2023-11-21T08:18:44;46.80;;;25.67;;
23470;SDS011;11908;50.806;4.424;2023-11-21T08:21:11;47.85;;;25.00;;
23470;SDS011;11908;50.806;4.424;2023-11-21T08:23:38;52.15;;;26.20;;
23470;SDS011;11908;50.806;4.424;2023-11-21T08:26:04;54.33;;;26.52;;
23470;SDS011;11908;50.806;4.424;2023-11-21T08:28:30;48.25;;;25.48;;
23470;SDS011;11908;50.806;4.424;2023-11-21T08:30:56;61.60;;;27.33;;
23470;SDS011;11908;50.806;4.424;2023-11-21T08:33:22;59.30;;;27.23;;
23470;SDS011;11908;50.806;4.424;2023-11-21T08:35:47;54.80;;;25.55;;
23470;SDS011;11908;50.806;4.424;2023-11-21T08:38:14;49.35;;;25.35;;
23470;SDS011;11908;50.806;4.424;2023-11-21T08:40:39;51.35;;;24.75;;
23470;SDS011;11908;50.806;4.424;2023-11-21T08:43:05;47.40;;;26.35;;
23470;SDS011;11908;50.806;4.424;2023-11-21T08:45:32;63.08;;;26.75;;
23470;SDS011;11908;50.806;4.424;2023-11-21T08:47:59;55.47;;;26.20;;
23470;SDS011;11908;50.806;4.424;2023-11-21T08:50:26;68.45;;;28.52;;
23470;SDS011;11908;50.806;4.424;2023-11-21T08:52:51;57.67;;;27.10;;
23470;SDS011;11908;50.806;4.424;2023-11-21T08:55:17;59.90;;;27.27;;
23470;SDS011;11908;50.806;4.424;2023-11-21T08:57:45;57.45;;;25.75;;
23470;SDS011;11908;50.806;4.424;2023-11-21T09:00:11;53.05;;;27.17;;
23470;SDS011;11908;50.806;4.424;2023-11-21T09:02:40;54.80;;;27.05;;
23470;SDS011;11908;50.806;4.424;2023-11-21T09:05:07;60.42;;;26.85;;
23470;SDS011;11908;50.806;4.424;2023-11-21T09:07:34;55.92;;;27.05;;
23470;SDS011;11908;50.806;4.424;2023-11-21T09:10:00;60.60;;;26.35;;
23470;SDS011;11908;50.806;4.424;2023-11-21T09:12:26;54.33;;;27.40;;
23470;SDS011;11908;50.806;4.424;2023-11-21T09:14:52;58.40;;;27.60;;
23470;SDS011;11908;50.806;4.424;2023-11-21T09:17:18;58.05;;;27.75;;
23470;SDS011;11908;50.806;4.424;2023-11-21T09:19:43;58.60;;;27.17;;
23470;SDS011;11908;50.806;4.424;2023-11-21T09:22:12;56.75;;;26.15;;
23470;SDS011;11908;50.806;4.424;2023-11-21T09:24:38;55.33;;;24.67;;
23470;SDS011;11908;50.806;4.424;2023-11-21T09:27:03;61.05;;;29.13;;
23470;SDS011;11908;50.806;4.424;2023-11-21T09:29:30;55.40;;;28.00;;
23470;SDS011;11908;50.806;4.424;2023-11-21T09:31:57;71.78;;;28.95;;
23470;SDS011;11908;50.806;4.424;2023-11-21T09:34:24;58.03;;;29.13;;
23470;SDS011;11908;50.806;4.424;2023-11-21T09:36:50;58.17;;;28.38;;
23470;SDS011;11908;50.806;4.424;2023-11-21T09:39:16;71.28;;;30.40;;
23470;SDS011;11908;50.806;4.424;2023-11-21T09:41:52;59.95;;;27.80;;
23470;SDS011;11908;50.806;4.424;2023-11-21T09:44:45;60.42;;;28.02;;
23470;SDS011;11908;50.806;4.424;2023-11-21T09:47:29;56.63;;;25.92;;
23470;SDS011;11908;50.806;4.424;2023-11-21T09:49:55;52.75;;;26.08;;
23470;SDS011;11908;50.806;4.424;2023-11-21T09:52:26;49.75;;;24.75;;
23470;SDS011;11908;50.806;4.424;2023-11-21T09:54:53;50.05;;;25.67;;
23470;SDS011;11908;50.806;4.424;2023-11-21T09:57:22;43.70;;;23.70;;
23470;SDS011;11908;50.806;4.424;2023-11-21T09:59:52;49.33;;;23.27;;
23470;SDS011;11908;50.806;4.424;2023-11-21T10:02:27;47.58;;;24.88;;
23470;SDS011;11908;50.806;4.424;2023-11-21T10:04:55;50.70;;;25.38;;
23470;SDS011;11908;50.806;4.424;2023-11-21T10:07:21;50.92;;;24.13;;
23470;SDS011;11908;50.806;4.424;2023-11-21T10:09:48;57.63;;;25.30;;
23470;SDS011;11908;50.806;4.424;2023-11-21T10:12:18;50.88;;;24.98;;
23470;SDS011;11908;50.806;4.424;2023-11-21T10:14:47;52.17;;;26.00;;
23470;SDS011;11908;50.806;4.424;2023-11-21T10:17:14;53.80;;;25.10;;
23470;SDS011;11908;50.806;4.424;2023-11-21T10:19:43;53.78;;;27.20;;
23470;SDS011;11908;50.806;4.424;2023-11-21T10:22:12;51.92;;;27.30;;
23470;SDS011;11908;50.806;4.424;2023-11-21T10:24:40;49.00;;;24.92;;
23470;SDS011;11908;50.806;4.424;2023-11-21T10:27:07;53.67;;;26.02;;
23470;SDS011;11908;50.806;4.424;2023-11-21T10:29:33;44.90;;;23.90;;
23470;SDS011;11908;50.806;4.424;2023-11-21T10:32:03;34.90;;;20.35;;
23470;SDS011;11908;50.806;4.424;2023-11-21T10:34:30;39.88;;;21.48;;
23470;SDS011;11908;50.806;4.424;2023-11-21T10:36:56;29.30;;;19.05;;
23470;SDS011;11908;50.806;4.424;2023-11-21T10:39:23;35.00;;;22.63;;
23470;SDS011;11908;50.806;4.424;2023-11-21T10:41:52;34.30;;;21.15;;
23470;SDS011;11908;50.806;4.424;2023-11-21T10:44:19;34.50;;;19.70;;
23470;SDS011;11908;50.806;4.424;2023-11-21T10:46:47;34.15;;;19.70;;
23470;SDS011;11908;50.806;4.424;2023-11-21T10:49:17;31.48;;;19.60;;
23470;SDS011;11908;50.806;4.424;2023-11-21T10:51:45;28.23;;;17.05;;
23470;SDS011;11908;50.806;4.424;2023-11-21T10:54:16;26.15;;;17.70;;
23470;SDS011;11908;50.806;4.424;2023-11-21T10:56:46;26.23;;;17.17;;
23470;SDS011;11908;50.806;4.424;2023-11-21T10:59:16;28.65;;;16.73;;
23470;SDS011;11908;50.806;4.424;2023-11-21T11:01:44;24.88;;;15.85;;
23470;SDS011;11908;50.806;4.424;2023-11-21T11:04:11;25.67;;;15.65;;
23470;SDS011;11908;50.806;4.424;2023-11-21T11:06:44;20.98;;;15.65;;
23470;SDS011;11908;50.806;4.424;2023-11-21T11:09:15;21.38;;;14.60;;
23470;SDS011;11908;50.806;4.424;2023-11-21T11:11:42;22.42;;;16.02;;
23470;SDS011;11908;50.806;4.424;2023-11-21T11:14:12;24.90;;;17.05;;
23470;SDS011;11908;50.806;4.424;2023-11-21T11:16:39;26.83;;;16.35;;
23470;SDS011;11908;50.806;4.424;2023-11-21T11:19:06;27.05;;;16.20;;
23470;SDS011;11908;50.806;4.424;2023-11-21T11:35:19;38.15;;;20.90;;
23470;SDS011;11908;50.806;4.424;2023-11-21T11:38:05;32.47;;;18.63;;
23470;SDS011;11908;50.806;4.424;2023-11-21T11:40:44;38.55;;;19.98;;
23470;SDS011;11908;50.806;4.424;2023-11-21T11:43:11;31.65;;;20.15;;
23470;SDS011;11908;50.806;4.424;2023-11-21T11:45:37;29.77;;;20.58;;
23470;SDS011;11908;50.806;4.424;2023-11-21T11:48:06;30.80;;;19.77;;
23470;SDS011;11908;50.806;4.424;2023-11-21T11:50:33;34.05;;;20.70;;
23470;SDS011;11908;50.806;4.424;2023-11-21T11:53:12;33.35;;;20.85;;
23470;SDS011;11908;50.806;4.424;2023-11-21T11:55:38;27.60;;;19.02;;
23470;SDS011;11908;50.806;4.424;2023-11-21T11:58:05;34.33;;;21.67;;
23470;SDS011;11908;50.806;4.424;2023-11-21T12:03:00;31.40;;;20.02;;
23470;SDS011;11908;50.806;4.424;2023-11-21T12:05:28;33.35;;;21.95;;
23470;SDS011;11908;50.806;4.424;2023-11-21T12:08:01;35.35;;;22.45;;
23470;SDS011;11908;50.806;4.424;2023-11-21T12:10:29;31.25;;;22.40;;
23470;SDS011;11908;50.806;4.424;2023-11-21T12:12:57;35.70;;;23.75;;
23470;SDS011;11908;50.806;4.424;2023-11-21T12:15:24;35.05;;;22.17;;
23470;SDS011;11908;50.806;4.424;2023-11-21T12:17:51;33.67;;;22.05;;
23470;SDS011;11908;50.806;4.424;2023-11-21T12:20:21;28.38;;;19.50;;
23470;SDS011;11908;50.806;4.424;2023-11-21T12:22:49;32.28;;;20.45;;
23470;SDS011;11908;50.806;4.424;2023-11-21T12:27:49;24.58;;;16.98;;
23470;SDS011;11908;50.806;4.424;2023-11-21T12:30:17;15.43;;;12.05;;
23470;SDS011;11908;50.806;4.424;2023-11-21T12:32:45;21.65;;;13.07;;
23470;SDS011;11908;50.806;4.424;2023-11-21T12:35:14;17.13;;;12.50;;
23470;SDS011;11908;50.806;4.424;2023-11-21T12:37:40;19.20;;;11.90;;
23470;SDS011;11908;50.806;4.424;2023-11-21T12:40:08;13.70;;;11.20;;
23470;SDS011;11908;50.806;4.424;2023-11-21T12:42:37;15.30;;;11.20;;
23470;SDS011;11908;50.806;4.424;2023-11-21T12:47:52;15.13;;;11.95;;
23470;SDS011;11908;50.806;4.424;2023-11-21T12:50:21;16.58;;;11.60;;
23470;SDS011;11908;50.806;4.424;2023-11-21T12:52:53;15.93;;;12.32;;
23470;SDS011;11908;50.806;4.424;2023-11-21T12:55:23;20.48;;;12.88;;
23470;SDS011;11908;50.806;4.424;2023-11-21T12:57:51;16.10;;;12.73;;
23470;SDS011;11908;50.806;4.424;2023-11-21T13:00:28;15.35;;;12.30;;
23470;SDS011;11908;50.806;4.424;2023-11-21T13:02:57;16.35;;;11.93;;
23470;SDS011;11908;50.806;4.424;2023-11-21T13:05:37;18.52;;;13.05;;
23470;SDS011;11908;50.806;4.424;2023-11-21T13:08:04;21.83;;;12.70;;
23470;SDS011;11908;50.806;4.424;2023-11-21T13:10:38;16.58;;;12.57;;
23470;SDS011;11908;50.806;4.424;2023-11-21T13:13:06;19.50;;;13.10;;
23470;SDS011;11908;50.806;4.424;2023-11-21T13:15:34;19.30;;;13.13;;
23470;SDS011;11908;50.806;4.424;2023-11-21T13:18:03;13.95;;;10.80;;
23470;SDS011;11908;50.806;4.424;2023-11-21T13:20:29;15.63;;;11.40;;
23470;SDS011;11908;50.806;4.424;2023-11-21T13:22:57;12.50;;;10.15;;
23470;SDS011;11908;50.806;4.424;2023-11-21T13:25:30;14.70;;;10.95;;
23470;SDS011;11908;50.806;4.424;2023-11-21T13:27:59;14.30;;;11.23;;
23470;SDS011;11908;50.806;4.424;2023-11-21T13:30:28;14.38;;;11.75;;
23470;SDS011;11908;50.806;4.424;2023-11-21T13:33:03;14.95;;;11.60;;
23470;SDS011;11908;50.806;4.424;2023-11-21T13:35:32;13.77;;;11.77;;
23470;SDS011;11908;50.806;4.424;2023-11-21T13:38:09;16.08;;;12.93;;
23470;SDS011;11908;50.806;4.424;2023-11-21T13:40:37;13.75;;;11.65;;
23470;SDS011;11908;50.806;4.424;2023-11-21T13:43:12;16.63;;;12.18;;
23470;SDS011;11908;50.806;4.424;2023-11-21T13:45:42;16.17;;;12.65;;
23470;SDS011;11908;50.806;4.424;2023-11-21T13:48:09;14.68;;;11.85;;
23470;SDS011;11908;50.806;4.424;2023-11-21T13:50:41;21.20;;;14.20;;
23470;SDS011;11908;50.806;4.424;2023-11-21T13:53:21;18.02;;;12.27;;
23470;SDS011;11908;50.806;4.424;2023-11-21T13:55:54;13.45;;;11.27;;
23470;SDS011;11908;50.806;4.424;2023-11-21T13:58:20;15.70;;;11.32;;
23470;SDS011;11908;50.806;4.424;2023-11-21T14:01:04;14.07;;;10.32;;
23470;SDS011;11908;50.806;4.424;2023-11-21T14:03:33;16.27;;;10.82;;
23470;SDS011;11908;50.806;4.424;2023-11-21T14:06:09;10.68;;;8.57;;
23470;SDS011;11908;50.806;4.424;2023-11-21T14:08:39;12.40;;;9.40;;
23470;SDS011;11908;50.806;4.424;2023-11-21T14:11:06;11.50;;;9.25;;
23470;SDS011;11908;50.806;4.424;2023-11-21T14:13:32;16.63;;;9.23;;
23470;SDS011;11908;50.806;4.424;2023-11-21T14:15:58;11.30;;;9.18;;
23470;SDS011;11908;50.806;4.424;2023-11-21T14:18:26;13.40;;;8.80;;
23470;SDS011;11908;50.806;4.424;2023-11-21T14:21:01;13.52;;;7.65;;
23470;SDS011;11908;50.806;4.424;2023-11-21T14:23:26;13.50;;;7.43;;
23470;SDS011;11908;50.806;4.424;2023-11-21T14:25:53;11.35;;;7.40;;
23470;SDS011;11908;50.806;4.424;2023-11-21T14:28:19;9.15;;;7.22;;
23470;SDS011;11908;50.806;4.424;2023-11-21T14:30:45;8.68;;;6.00;;
23470;SDS011;11908;50.806;4.424;2023-11-21T14:33:12;9.48;;;5.70;;
23470;SDS011;11908;50.806;4.424;2023-11-21T14:35:38;7.50;;;5.13;;
23470;SDS011;11908;50.806;4.424;2023-11-21T14:38:03;9.05;;;5.00;;
23470;SDS011;11908;50.806;4.424;2023-11-21T14:40:33;9.43;;;5.60;;
23470;SDS011;11908;50.806;4.424;2023-11-21T14:43:00;9.90;;;5.57;;
23470;SDS011;11908;50.806;4.424;2023-11-21T14:45:27;5.88;;;4.45;;